Time,TemperatureF,DewpointF,PressureIn,WindDirection,WindDirectionDegrees,WindSpeedMPH,WindSpeedGustMPH,Humidity,HourlyPrecipIn,Conditions,Clouds,dailyrainin,SoftwareType,DateUTC
2013-02-01 00:13:00,26.1,11.0,29.57,West,270,3.0,15.0,54,0.00,,,0.00,weatherlink.com 1.10,2013-02-01 05:13:00,
2013-02-01 00:28:00,25.9,9.0,29.58,WSW,249,2.0,9.0,48,0.00,,,0.00,weatherlink.com 1.10,2013-02-01 05:28:00,
2013-02-01 00:43:00,25.9,8.0,29.58,WSW,249,5.0,13.0,46,0.00,,,0.00,weatherlink.com 1.10,2013-02-01 05:43:00,
2013-02-01 00:58:00,26.0,8.0,29.58,West,267,4.0,13.0,46,0.00,,,0.00,weatherlink.com 1.10,2013-02-01 05:58:00,
2013-02-01 01:13:00,25.9,9.0,29.59,SW,222,7.0,13.0,48,0.00,,,0.00,weatherlink.com 1.10,2013-02-01 06:13:00,
2013-02-01 01:28:00,25.7,9.0,29.60,SW,236,4.0,16.0,49,0.00,,,0.00,weatherlink.com 1.10,2013-02-01 06:28:00,
2013-02-01 01:43:00,25.4,9.0,29.60,NW,307,4.0,16.0,51,0.00,,,0.00,weatherlink.com 1.10,2013-02-01 06:43:00,
2013-02-01 01:58:00,25.4,10.0,29.61,NW,314,1.0,16.0,52,0.00,,,0.00,weatherlink.com 1.10,2013-02-01 06:58:00,
2013-02-01 02:13:00,25.3,7.0,29.62,WNW,301,9.0,25.0,46,0.00,,,0.00,weatherlink.com 1.10,2013-02-01 07:13:00,
2013-02-01 02:28:00,24.7,7.0,29.62,WSW,253,6.0,11.0,46,0.00,,,0.00,weatherlink.com 1.10,2013-02-01 07:28:00,
2013-02-01 02:43:00,24.4,7.0,29.62,NNW,330,1.0,9.0,48,0.00,,,0.00,weatherlink.com 1.10,2013-02-01 07:43:00,
2013-02-01 02:58:00,24.1,6.0,29.62,WSW,253,5.0,11.0,47,0.00,,,0.00,weatherlink.com 1.10,2013-02-01 07:58:00,
2013-02-01 03:13:00,23.9,6.0,29.62,SW,236,4.0,12.0,46,0.00,,,0.00,weatherlink.com 1.10,2013-02-01 08:13:00,
2013-02-01 03:28:00,23.8,6.0,29.63,WNW,283,4.0,14.0,46,0.00,,,0.00,weatherlink.com 1.10,2013-02-01 08:28:00,
2013-02-01 03:43:00,23.9,4.0,29.64,WSW,246,9.0,19.0,43,0.00,,,0.00,weatherlink.com 1.10,2013-02-01 08:43:00,
2013-02-01 03:58:00,23.7,5.0,29.64,SSW,195,4.0,12.0,45,0.00,,,0.00,weatherlink.com 1.10,2013-02-01 08:58:00,
2013-02-01 04:13:00,23.3,6.0,29.65,WSW,248,7.0,9.0,48,0.00,,,0.00,weatherlink.com 1.10,2013-02-01 09:13:00,
2013-02-01 04:28:00,23.1,9.0,29.65,West,262,5.0,9.0,56,0.00,,,0.00,weatherlink.com 1.10,2013-02-01 09:28:00,
2013-02-01 04:43:00,22.6,10.0,29.65,WNW,283,4.0,11.0,58,0.00,,,0.00,weatherlink.com 1.10,2013-02-01 09:43:00,
2013-02-01 04:58:00,22.5,9.0,29.66,WSW,253,8.0,12.0,57,0.00,,,0.00,weatherlink.com 1.10,2013-02-01 09:58:00,
2013-02-01 05:13:00,22.4,9.0,29.66,WSW,249,4.0,12.0,57,0.00,,,0.00,weatherlink.com 1.10,2013-02-01 10:13:00,
2013-02-01 05:28:00,22.2,9.0,29.66,WSW,242,5.0,10.0,57,0.00,,,0.00,weatherlink.com 1.10,2013-02-01 10:28:00,
2013-02-01 05:43:00,22.2,9.0,29.66,SW,233,7.0,11.0,57,0.00,,,0.00,weatherlink.com 1.10,2013-02-01 10:43:00,
2013-02-01 05:59:00,22.1,8.0,29.67,SW,235,4.0,12.0,56,0.00,,,0.00,weatherlink.com 1.10,2013-02-01 10:59:00,
2013-02-01 06:14:00,21.9,9.0,29.68,WSW,245,2.0,11.0,57,0.00,,,0.00,weatherlink.com 1.10,2013-02-01 11:14:00,
2013-02-01 06:29:00,21.9,9.0,29.69,WSW,253,4.0,12.0,57,0.00,,,0.00,weatherlink.com 1.10,2013-02-01 11:29:00,
2013-02-01 06:44:00,22.1,9.0,29.70,WNW,301,5.0,10.0,57,0.00,,,0.00,weatherlink.com 1.10,2013-02-01 11:44:00,
2013-02-01 06:59:00,22.1,10.0,29.71,West,263,8.0,11.0,61,0.00,,,0.00,weatherlink.com 1.10,2013-02-01 11:59:00,
2013-02-01 07:14:00,22.1,10.0,29.73,WSW,238,6.0,13.0,61,0.00,,,0.00,weatherlink.com 1.10,2013-02-01 12:14:00,
2013-02-01 07:29:00,21.5,13.0,29.73,SW,224,3.0,12.0,70,0.00,,,0.00,weatherlink.com 1.10,2013-02-01 12:29:00,
2013-02-01 07:44:00,21.8,12.0,29.74,SW,235,2.0,9.0,67,0.00,,,0.00,weatherlink.com 1.10,2013-02-01 12:44:00,
2013-02-01 07:59:00,22.1,10.0,29.75,WSW,256,2.0,11.0,61,0.00,,,0.00,weatherlink.com 1.10,2013-02-01 12:59:00,
2013-02-01 08:14:00,22.3,10.0,29.76,West,276,3.0,12.0,59,0.00,,,0.00,weatherlink.com 1.10,2013-02-01 13:14:00,
2013-02-01 08:29:00,22.5,11.0,29.77,WSW,239,9.0,16.0,61,0.00,,,0.00,weatherlink.com 1.10,2013-02-01 13:29:00,
2013-02-01 08:44:00,22.9,12.0,29.77,SW,215,7.0,14.0,62,0.00,,,0.00,weatherlink.com 1.10,2013-02-01 13:44:00,
2013-02-01 08:59:00,22.9,12.0,29.78,WSW,245,11.0,11.0,64,0.00,,,0.00,weatherlink.com 1.10,2013-02-01 13:59:00,
2013-02-01 09:14:00,22.9,12.0,29.78,WSW,253,10.0,14.0,64,0.00,,,0.00,weatherlink.com 1.10,2013-02-01 14:14:00,
2013-02-01 09:29:00,22.8,11.0,29.79,SW,217,6.0,16.0,61,0.00,,,0.00,weatherlink.com 1.10,2013-02-01 14:29:00,
2013-02-01 09:44:00,23.6,10.0,29.79,WSW,253,3.0,16.0,57,0.00,,,0.00,weatherlink.com 1.10,2013-02-01 14:44:00,
2013-02-01 09:59:00,23.9,5.0,29.78,WNW,285,9.0,11.0,45,0.00,,,0.00,weatherlink.com 1.10,2013-02-01 14:59:00,
2013-02-01 10:14:00,24.5,4.0,29.77,NE,45,8.0,14.0,41,0.00,,,0.00,weatherlink.com 1.10,2013-02-01 15:14:00,
2013-02-01 10:29:00,24.7,3.0,29.78,NW,317,4.0,15.0,40,0.00,,,0.00,weatherlink.com 1.10,2013-02-01 15:29:00,
2013-02-01 10:44:00,25.2,5.0,29.78,NW,309,5.0,16.0,42,0.00,,,0.00,weatherlink.com 1.10,2013-02-01 15:44:00,
2013-02-01 10:59:00,25.1,5.0,29.79,West,274,4.0,18.0,42,0.00,,,0.00,weatherlink.com 1.10,2013-02-01 15:59:00,
2013-02-01 11:14:00,25.0,5.0,29.80,WSW,245,4.0,11.0,42,0.00,,,0.00,weatherlink.com 1.10,2013-02-01 16:14:00,
2013-02-01 11:29:00,25.1,6.0,29.79,WSW,248,12.0,14.0,44,0.00,,,0.00,weatherlink.com 1.10,2013-02-01 16:29:00,
2013-02-01 11:44:00,25.0,5.0,29.79,WSW,249,4.0,15.0,42,0.00,,,0.00,weatherlink.com 1.10,2013-02-01 16:44:00,
2013-02-01 11:59:00,25.7,5.0,29.78,West,280,5.0,17.0,41,0.00,,,0.00,weatherlink.com 1.10,2013-02-01 16:59:00,
2013-02-01 12:14:00,25.8,4.0,29.78,SW,226,3.0,23.0,40,0.00,,,0.00,weatherlink.com 1.10,2013-02-01 17:14:00,
2013-02-01 12:29:00,26.3,5.0,29.77,West,274,5.0,13.0,40,0.00,,,0.00,weatherlink.com 1.10,2013-02-01 17:29:00,
2013-02-01 12:44:00,26.5,4.0,29.77,WSW,250,4.0,15.0,38,0.00,,,0.00,weatherlink.com 1.10,2013-02-01 17:44:00,
2013-02-01 12:59:00,25.1,2.0,29.75,NNW,348,4.0,16.0,37,0.00,,,0.00,weatherlink.com 1.10,2013-02-01 17:59:00,
2013-02-01 13:14:00,25.6,3.0,29.76,West,269,3.0,18.0,37,0.00,,,0.00,weatherlink.com 1.10,2013-02-01 18:14:00,
2013-02-01 13:29:00,26.2,3.0,29.77,West,269,5.0,12.0,36,0.00,,,0.00,weatherlink.com 1.10,2013-02-01 18:29:00,
2013-02-01 13:44:00,25.5,4.0,29.77,SW,226,3.0,17.0,39,0.00,,,0.00,weatherlink.com 1.10,2013-02-01 18:44:00,
2013-02-01 13:59:00,26.1,2.0,29.78,NW,312,4.0,18.0,35,0.00,,,0.00,weatherlink.com 1.10,2013-02-01 18:59:00,
2013-02-01 14:14:00,25.0,3.0,29.79,SSE,153,3.0,13.0,38,0.00,,,0.00,weatherlink.com 1.10,2013-02-01 19:14:00,
2013-02-01 14:29:00,24.6,3.0,29.80,WNW,302,5.0,12.0,40,0.00,,,0.00,weatherlink.com 1.10,2013-02-01 19:29:00,
2013-02-01 14:44:00,24.6,4.0,29.80,NW,306,5.0,12.0,41,0.00,,,0.00,weatherlink.com 1.10,2013-02-01 19:44:00,
2013-02-01 15:00:00,24.2,4.0,29.81,NNW,334,5.0,11.0,41,0.00,,,0.00,weatherlink.com 1.10,2013-02-01 20:00:00,
2013-02-01 15:15:00,24.2,4.0,29.82,WSW,253,5.0,12.0,41,0.00,,,0.00,weatherlink.com 1.10,2013-02-01 20:15:00,
2013-02-01 15:45:00,24.1,4.0,29.84,ESE,102,6.0,13.0,43,0.00,,,0.00,weatherlink.com 1.10,2013-02-01 20:45:00,
2013-02-01 16:00:00,23.8,3.0,29.84,NNW,338,7.0,10.0,40,0.00,,,0.00,weatherlink.com 1.10,2013-02-01 21:00:00,
2013-02-01 16:15:00,23.6,3.0,29.85,SE,132,1.0,8.0,41,0.00,,,0.00,weatherlink.com 1.10,2013-02-01 21:15:00,
2013-02-01 16:30:00,23.5,3.0,29.87,WSW,240,5.0,10.0,41,0.00,,,0.00,weatherlink.com 1.10,2013-02-01 21:30:00,
2013-02-01 16:45:00,23.2,4.0,29.88,WNW,293,4.0,12.0,44,0.00,,,0.00,weatherlink.com 1.10,2013-02-01 21:45:00,
2013-02-01 17:00:00,22.8,4.0,29.89,NW,311,3.0,12.0,45,0.00,,,0.00,weatherlink.com 1.10,2013-02-01 22:00:00,
2013-02-01 17:15:00,22.5,4.0,29.90,NW,309,6.0,11.0,46,0.00,,,0.00,weatherlink.com 1.10,2013-02-01 22:15:00,
2013-02-01 17:30:00,22.4,5.0,29.91,NNW,328,7.0,17.0,47,0.00,,,0.00,weatherlink.com 1.10,2013-02-01 22:30:00,
2013-02-01 17:45:00,22.1,5.0,29.93,NNW,335,5.0,15.0,48,0.00,,,0.00,weatherlink.com 1.10,2013-02-01 22:45:00,
2013-02-01 18:00:00,21.8,5.0,29.94,NW,321,1.0,12.0,49,0.00,,,0.00,weatherlink.com 1.10,2013-02-01 23:00:00,
2013-02-01 18:15:00,21.2,6.0,29.95,NW,315,2.0,9.0,52,0.00,,,0.00,weatherlink.com 1.10,2013-02-01 23:15:00,
2013-02-01 18:30:00,20.6,7.0,29.96,SW,231,8.0,12.0,55,0.00,,,0.00,weatherlink.com 1.10,2013-02-01 23:30:00,
2013-02-01 18:45:00,20.2,6.0,29.98,WNW,302,3.0,15.0,55,0.00,,,0.00,weatherlink.com 1.10,2013-02-01 23:45:00,
2013-02-01 19:00:00,20.2,6.0,29.99,SSW,205,1.0,15.0,55,0.00,,,0.00,weatherlink.com 1.10,2013-02-02 00:00:00,
2013-02-01 19:15:00,20.2,5.0,29.99,WSW,238,5.0,8.0,53,0.00,,,0.00,weatherlink.com 1.10,2013-02-02 00:15:00,
2013-02-01 19:30:00,20.0,4.0,30.00,ENE,73,4.0,9.0,50,0.00,,,0.00,weatherlink.com 1.10,2013-02-02 00:30:00,
2013-02-01 19:45:00,19.8,3.0,30.01,WNW,283,2.0,13.0,49,0.00,,,0.00,weatherlink.com 1.10,2013-02-02 00:45:00,
2013-02-01 20:00:00,19.5,3.0,30.02,NW,313,2.0,14.0,49,0.00,,,0.00,weatherlink.com 1.10,2013-02-02 01:00:00,
2013-02-01 20:15:00,19.2,2.0,30.03,South,188,3.0,12.0,48,0.00,,,0.00,weatherlink.com 1.10,2013-02-02 01:15:00,
2013-02-01 20:30:00,18.9,2.0,30.03,West,270,3.0,9.0,47,0.00,,,0.00,weatherlink.com 1.10,2013-02-02 01:30:00,
2013-02-01 20:45:00,18.7,3.0,30.04,West,276,4.0,13.0,51,0.00,,,0.00,weatherlink.com 1.10,2013-02-02 01:45:00,
2013-02-01 21:00:00,18.5,2.0,30.04,WSW,246,6.0,14.0,49,0.00,,,0.00,weatherlink.com 1.10,2013-02-02 02:00:00,
2013-02-01 21:16:00,18.2,1.0,30.05,West,276,3.0,13.0,48,0.00,,,0.00,weatherlink.com 1.10,2013-02-02 02:16:00,
2013-02-01 21:31:00,18.0,1.0,30.05,NW,321,8.0,13.0,48,0.00,,,0.00,weatherlink.com 1.10,2013-02-02 02:31:00,
2013-02-01 21:46:00,17.9,1.0,30.06,NW,321,6.0,16.0,48,0.00,,,0.00,weatherlink.com 1.10,2013-02-02 02:46:00,
2013-02-01 22:01:00,17.7,2.0,30.07,NW,318,3.0,12.0,50,0.00,,,0.00,weatherlink.com 1.10,2013-02-02 03:01:00,
2013-02-01 22:16:00,17.6,2.0,30.07,SW,233,2.0,8.0,51,0.00,,,0.00,weatherlink.com 1.10,2013-02-02 03:16:00,
2013-02-01 22:31:00,17.5,3.0,30.07,WSW,248,3.0,8.0,53,0.00,,,0.00,weatherlink.com 1.10,2013-02-02 03:31:00,
2013-02-01 22:46:00,17.4,3.0,30.08,West,278,2.0,8.0,54,0.00,,,0.00,weatherlink.com 1.10,2013-02-02 03:46:00,
2013-02-01 23:01:00,17.4,4.0,30.08,SW,235,3.0,10.0,56,0.00,,,0.00,weatherlink.com 1.10,2013-02-02 04:01:00,
2013-02-01 23:16:00,17.0,5.0,30.08,West,263,6.0,9.0,59,0.00,,,0.00,weatherlink.com 1.10,2013-02-02 04:16:00,
2013-02-01 23:31:00,16.7,5.0,30.09,WSW,255,2.0,10.0,60,0.00,,,0.00,weatherlink.com 1.10,2013-02-02 04:31:00,
2013-02-01 23:46:00,16.6,6.0,30.09,WSW,246,3.0,7.0,62,0.00,,,0.00,weatherlink.com 1.10,2013-02-02 04:46:00,